Time;durP1;ratioP1;P1;durP2;ratioP2;P2;SDS_P1;SDS_P2;PMS_P1;PMS_P2;Temp;Humidity;BMP_temperature;BMP_pressure;BME280_temperature;BME280_humidity;BME280_pressure;Samples;Min_cycle;Max_cycle;Signal;HPM_P1;HPM_P2
2022/06/20 00:02:14;;;;;;;24.27;8.18;;;23.90;51.50;;;;;;5037035;28;20087;-79
2022/06/20 00:04:39;;;;;;;19.63;8.10;;;23.80;51.60;;;;;;5036367;28;20029;-78
2022/06/20 00:07:05;;;;;;;20.17;8.10;;;23.80;51.60;;;;;;5036915;28;20028;-78
2022/06/20 00:09:30;;;;;;;13.65;7.65;;;23.70;51.80;;;;;;5036708;28;20409;-79
2022/06/20 00:11:56;;;;;;;18.27;7.97;;;23.60;52.20;;;;;;5036888;28;20484;-79
2022/06/20 00:14:21;;;;;;;18.75;8.60;;;23.70;52.10;;;;;;5036874;28;20441;-78
2022/06/20 00:16:47;;;;;;;24.60;8.35;;;23.60;52.00;;;;;;5036778;28;20231;-77
2022/06/20 00:19:14;;;;;;;22.05;7.82;;;23.50;52.00;;;;;;5036712;28;20466;-78
2022/06/20 00:21:41;;;;;;;16.02;7.35;;;23.50;52.40;;;;;;5036535;28;20127;-78
2022/06/20 00:24:08;;;;;;;14.60;7.22;;;23.50;52.50;;;;;;5036050;28;20029;-79
2022/06/20 00:26:35;;;;;;;18.23;7.68;;;23.40;52.40;;;;;;5036643;28;20083;-78
2022/06/20 00:29:06;;;;;;;17.40;8.05;;;23.40;52.60;;;;;;5036405;28;20029;-77
2022/06/20 00:31:34;;;;;;;16.08;7.38;;;23.30;52.70;;;;;;5052954;28;20028;-77
2022/06/20 00:34:00;;;;;;;20.48;8.05;;;23.30;52.90;;;;;;5036220;28;20032;-78
2022/06/20 00:36:25;;;;;;;19.13;7.57;;;23.30;52.90;;;;;;5036178;28;20116;-77
2022/06/20 00:38:55;;;;;;;25.02;8.05;;;23.30;52.60;;;;;;5036074;28;20426;-77
2022/06/20 00:41:26;;;;;;;16.50;7.80;;;23.30;52.80;;;;;;5035896;28;20091;-77
2022/06/20 00:43:53;;;;;;;21.95;7.65;;;23.30;53.00;;;;;;5052834;28;20107;-77
2022/06/20 00:46:43;;;;;;;18.83;8.30;;;23.20;53.20;;;;;;5035998;28;20041;-77
2022/06/20 00:49:19;;;;;;;17.75;8.50;;;23.20;53.30;;;;;;5052429;28;20064;-78
2022/06/20 00:52:22;;;;;;;16.83;7.43;;;23.20;53.20;;;;;;5036101;28;20059;-78
2022/06/20 00:55:06;;;;;;;20.98;8.57;;;23.10;53.50;;;;;;5035934;28;20025;-78
2022/06/20 00:57:38;;;;;;;20.20;8.20;;;23.10;53.50;;;;;;5036021;28;20035;-78
2022/06/20 01:00:17;;;;;;;14.40;7.00;;;23.00;53.50;;;;;;5036029;28;20021;-79
2022/06/20 01:02:47;;;;;;;13.70;6.70;;;23.00;53.70;;;;;;5035587;28;20065;-78
2022/06/20 01:05:20;;;;;;;15.82;7.13;;;23.00;53.60;;;;;;5035750;28;20032;-78
2022/06/20 01:07:53;;;;;;;20.30;8.10;;;23.10;53.50;;;;;;5035686;28;20021;-78
2022/06/20 01:10:19;;;;;;;16.35;7.68;;;23.00;53.70;;;;;;5035799;28;20021;-78
2022/06/20 01:13:07;;;;;;;18.90;7.43;;;23.00;53.90;;;;;;5035713;28;20028;-78
2022/06/20 01:15:41;;;;;;;18.48;7.55;;;23.00;54.10;;;;;;5035374;28;20021;-78
2022/06/20 01:18:15;;;;;;;14.18;7.50;;;23.00;54.00;;;;;;5035465;28;20095;-78
2022/06/20 01:20:43;;;;;;;16.92;7.38;;;23.00;54.10;;;;;;5035367;28;20101;-78
2022/06/20 01:23:30;;;;;;;14.70;7.28;;;23.00;54.30;;;;;;5035463;28;20135;-78
2022/06/20 01:25:58;;;;;;;16.02;7.72;;;23.00;54.10;;;;;;5035402;28;20021;-76
2022/06/20 01:28:32;;;;;;;19.38;7.85;;;23.10;54.30;;;;;;5035316;28;20397;-77
2022/06/20 01:30:59;;;;;;;18.75;7.47;;;23.00;54.50;;;;;;5035466;28;20350;-78
2022/06/20 01:33:26;;;;;;;15.70;7.15;;;22.90;54.80;;;;;;5035433;28;20164;-77
2022/06/20 01:38:38;;;;;;;12.52;6.72;;;22.90;55.30;;;;;;5053372;28;20102;-78
2022/06/20 01:43:50;;;;;;;15.90;6.90;;;22.90;55.60;;;;;;5053236;28;20027;-78
2022/06/20 01:46:18;;;;;;;14.68;6.38;;;22.90;55.40;;;;;;5015438;28;20053;-78
2022/06/20 01:48:49;;;;;;;19.52;7.85;;;22.90;55.20;;;;;;5015026;28;20026;-78
2022/06/20 01:51:30;;;;;;;15.88;8.00;;;23.00;55.40;;;;;;5015241;28;20028;-78
2022/06/20 01:53:57;;;;;;;19.48;7.72;;;22.90;55.10;;;;;;5010642;28;20034;-78
2022/06/20 01:56:24;;;;;;;16.88;6.78;;;22.90;55.10;;;;;;5015401;28;20366;-77
2022/06/20 01:58:58;;;;;;;15.38;7.35;;;22.90;54.90;;;;;;5015264;28;20478;-79
2022/06/20 02:01:25;;;;;;;16.90;7.38;;;22.80;55.00;;;;;;5020978;28;20049;-78
2022/06/20 02:03:50;;;;;;;15.85;6.93;;;22.70;55.90;;;;;;5021361;28;20029;-78
2022/06/20 02:06:18;;;;;;;13.48;7.30;;;22.70;55.40;;;;;;5021905;28;20022;-78
2022/06/20 02:08:47;;;;;;;17.27;7.72;;;22.70;55.30;;;;;;5021786;28;20370;-78
2022/06/20 02:11:33;;;;;;;21.20;8.00;;;22.80;55.00;;;;;;5021728;28;20033;-79
2022/06/20 02:14:03;;;;;;;;;;;22.70;56.20;;;;;;5022078;28;20496;-78
2022/06/20 02:16:33;;;;;;;18.52;8.02;;;22.60;55.40;;;;;;5038039;28;19959;-78
2022/06/20 02:19:04;;;;;;;19.80;7.82;;;22.70;55.50;;;;;;5021678;28;20033;-79
2022/06/20 02:21:33;;;;;;;14.23;7.13;;;22.60;55.50;;;;;;5021559;28;20061;-77
2022/06/20 02:24:16;;;;;;;11.50;6.72;;;22.60;55.60;;;;;;5005145;28;20457;-78
2022/06/20 02:26:45;;;;;;;13.10;7.00;;;22.60;55.80;;;;;;5021571;28;20018;-79
2022/06/20 02:29:20;;;;;;;18.45;7.30;;;22.60;55.90;;;;;;5021411;28;20032;-79
2022/06/20 02:31:46;;;;;;;13.65;6.70;;;22.60;55.80;;;;;;5021669;28;20029;-78
2022/06/20 02:34:11;;;;;;;18.17;8.05;;;22.50;55.90;;;;;;5021543;28;20021;-78
2022/06/20 02:36:37;;;;;;;14.10;7.28;;;22.50;55.70;;;;;;5021388;28;20505;-79
2022/06/20 02:39:03;;;;;;;16.70;7.35;;;22.50;55.80;;;;;;5021196;28;20021;-79
2022/06/20 02:41:30;;;;;;;18.73;6.90;;;22.50;55.90;;;;;;5021105;28;20049;-79
2022/06/20 02:44:06;;;;;;;19.05;7.20;;;22.40;56.20;;;;;;5021618;28;20040;-79
2022/06/20 02:46:33;;;;;;;14.02;7.40;;;22.40;56.20;;;;;;5040782;28;20036;-78
2022/06/20 02:49:02;;;;;;;13.63;7.22;;;22.40;56.30;;;;;;5041311;28;20033;-78
2022/06/20 02:51:34;;;;;;;18.35;7.45;;;22.30;56.50;;;;;;5041088;28;20037;-78
2022/06/20 02:54:03;;;;;;;17.17;7.50;;;22.30;56.70;;;;;;5040846;28;20032;-79
2022/06/20 02:56:34;;;;;;;12.82;7.00;;;22.30;56.90;;;;;;5041218;28;20485;-78
2022/06/20 02:59:05;;;;;;;13.75;7.40;;;22.30;56.90;;;;;;5041186;28;20033;-78
2022/06/20 03:01:54;;;;;;;23.98;7.78;;;22.30;56.40;;;;;;5040966;28;20118;-79
2022/06/20 03:04:24;;;;;;;14.85;7.35;;;22.20;56.70;;;;;;5040921;28;20036;-78
2022/06/20 03:06:53;;;;;;;21.42;7.25;;;22.20;56.90;;;;;;5040863;28;20025;-78
2022/06/20 03:09:26;;;;;;;13.25;6.72;;;22.30;56.90;;;;;;5041112;28;20167;-79
2022/06/20 03:11:52;;;;;;;13.95;6.75;;;22.30;56.80;;;;;;5056001;28;20119;-79
2022/06/20 03:14:20;;;;;;;16.05;7.20;;;22.40;57.00;;;;;;5037886;28;20064;-79
2022/06/20 03:16:46;;;;;;;12.77;6.78;;;22.40;56.80;;;;;;5037403;28;20028;-78
2022/06/20 03:19:23;;;;;;;12.93;6.35;;;22.50;56.60;;;;;;5037605;28;20404;-79
2022/06/20 03:21:50;;;;;;;16.45;6.85;;;22.50;56.30;;;;;;5037689;28;20028;-78
2022/06/20 03:24:21;;;;;;;16.33;6.18;;;22.50;56.10;;;;;;5037645;28;20028;-79
2022/06/20 03:26:47;;;;;;;15.40;7.53;;;22.50;55.90;;;;;;5054146;28;20025;-79
2022/06/20 03:29:16;;;;;;;14.35;6.75;;;22.50;55.60;;;;;;5037557;28;20028;-79
2022/06/20 03:31:42;;;;;;;18.15;6.65;;;22.50;56.00;;;;;;5037291;28;20047;-79
2022/06/20 03:34:09;;;;;;;22.50;6.75;;;22.60;52.00;;;;;;5037369;28;20561;-79
2022/06/20 03:36:35;;;;;;;11.57;5.20;;;22.70;50.40;;;;;;5037420;28;20059;-78
2022/06/20 03:39:03;;;;;;;14.60;5.55;;;23.00;49.50;;;;;;5037370;28;20112;-79
2022/06/20 03:41:29;;;;;;;14.40;4.85;;;23.20;47.20;;;;;;5037059;28;20028;-79
2022/06/20 03:44:12;;;;;;;14.23;5.22;;;23.70;44.10;;;;;;5036537;28;20037;-80
2022/06/20 03:46:46;;;;;;;14.60;5.35;;;24.30;42.00;;;;;;5037069;28;20029;-77
2022/06/20 03:49:22;;;;;;;13.43;5.03;;;24.70;40.30;;;;;;5053823;28;20032;-78
2022/06/20 03:51:59;;;;;;;16.73;5.13;;;24.90;39.80;;;;;;5053626;28;20021;-78
2022/06/20 03:54:31;;;;;;;15.07;4.65;;;25.00;39.50;;;;;;5036913;28;20055;-78
2022/06/20 03:57:12;;;;;;;16.25;4.43;;;25.10;39.00;;;;;;5053586;28;20174;-78
2022/06/20 03:59:41;;;;;;;12.07;3.67;;;25.10;39.10;;;;;;5036960;28;20031;-78
2022/06/20 04:02:17;;;;;;;26.10;4.72;;;25.00;39.90;;;;;;5036885;28;20029;-78
2022/06/20 04:04:52;;;;;;;14.95;4.35;;;24.80;43.10;;;;;;5036858;28;20017;-78
2022/06/20 04:07:26;;;;;;;18.05;5.05;;;24.40;46.40;;;;;;5036905;28;20520;-78
2022/06/20 04:12:53;;;;;;;13.00;4.57;;;23.70;52.50;;;;;;5054555;28;20389;-78
2022/06/20 04:15:27;;;;;;;21.38;4.85;;;23.40;53.50;;;;;;5036633;28;20033;-78
2022/06/20 04:18:27;;;;;;;14.40;5.05;;;23.20;54.00;;;;;;5036645;28;20043;-78
2022/06/20 04:20:58;;;;;;;16.90;5.45;;;23.10;56.70;;;;;;5054480;28;20083;-78
2022/06/20 04:23:42;;;;;;;21.65;6.13;;;22.90;60.20;;;;;;5052365;28;20029;-78
2022/06/20 04:26:20;;;;;;;10.65;4.50;;;22.70;61.80;;;;;;5036664;28;20020;-78
2022/06/20 04:29:04;;;;;;;14.18;4.60;;;22.50;63.30;;;;;;5036464;28;20029;-78
2022/06/20 04:32:10;;;;;;;15.45;4.63;;;22.50;60.50;;;;;;5036351;28;20024;-78
2022/06/20 04:34:56;;;;;;;20.80;5.60;;;22.50;58.60;;;;;;5036648;28;20032;-78
2022/06/20 04:37:42;;;;;;;;;;;22.40;63.80;;;;;;5036854;28;20086;-78
2022/06/20 04:40:24;;;;;;;19.07;6.00;;;22.40;65.50;;;;;;5035800;28;20375;-78
2022/06/20 04:42:56;;;;;;;14.73;5.63;;;22.40;67.90;;;;;;5036219;28;20044;-78
2022/06/20 04:45:39;;;;;;;15.73;5.35;;;22.40;69.20;;;;;;5053904;28;20064;-78
2022/06/20 04:48:18;;;;;;;18.23;5.20;;;22.40;70.50;;;;;;5036080;28;20036;-79
2022/06/20 04:51:06;;;;;;;11.77;4.97;;;22.20;69.60;;;;;;5035740;28;20017;-79
2022/06/20 04:53:35;;;;;;;15.65;5.60;;;22.20;69.70;;;;;;5036046;28;20021;-79
2022/06/20 04:56:07;;;;;;;11.07;4.95;;;22.20;69.40;;;;;;5035493;28;20033;-79
2022/06/20 04:58:37;;;;;;;13.30;4.85;;;22.10;69.30;;;;;;5031689;28;20029;-79
2022/06/20 05:01:05;;;;;;;15.23;5.38;;;22.10;69.00;;;;;;5035597;28;20048;-78
2022/06/20 05:03:35;;;;;;;11.23;5.00;;;22.10;69.00;;;;;;5019248;28;20504;-79
2022/06/20 05:06:04;;;;;;;12.45;4.53;;;22.20;70.00;;;;;;5035318;28;20025;-79
2022/06/20 05:08:34;;;;;;;12.35;4.60;;;22.20;68.90;;;;;;5035719;28;20036;-79
2022/06/20 05:11:33;;;;;;;15.88;5.07;;;22.20;69.90;;;;;;5035961;28;20021;-79
2022/06/20 05:14:19;;;;;;;9.43;4.80;;;22.20;69.60;;;;;;5035296;28;20500;-78
2022/06/20 05:16:48;;;;;;;14.15;4.50;;;22.20;69.40;;;;;;5035419;28;20032;-78
2022/06/20 05:19:30;;;;;;;10.23;4.90;;;22.30;69.90;;;;;;5035553;28;20116;-77
2022/06/20 05:22:01;;;;;;;12.15;4.97;;;22.30;70.30;;;;;;5035264;28;20024;-78
2022/06/20 05:24:37;;;;;;;14.45;5.18;;;22.30;70.10;;;;;;5035634;28;20026;-79
2022/06/20 05:27:14;;;;;;;14.02;5.75;;;22.30;70.70;;;;;;5019035;28;20432;-79
2022/06/20 05:29:43;;;;;;;13.27;5.63;;;22.40;71.10;;;;;;5034916;28;20477;-79
2022/06/20 05:32:14;;;;;;;10.93;5.35;;;22.50;70.90;;;;;;5035107;28;20095;-80
2022/06/20 05:35:05;;;;;;;11.23;5.53;;;22.50;71.00;;;;;;5050871;28;20021;-79
2022/06/20 05:37:46;;;;;;;13.50;5.57;;;22.50;70.80;;;;;;5035160;28;20064;-79
2022/06/20 05:40:16;;;;;;;11.13;5.00;;;22.50;70.30;;;;;;5034424;28;20028;-79
2022/06/20 05:42:42;;;;;;;10.18;4.72;;;22.50;70.40;;;;;;5034615;28;20033;-78
2022/06/20 05:45:21;;;;;;;13.88;5.20;;;22.50;70.40;;;;;;5034846;28;20045;-80
2022/06/20 05:47:50;;;;;;;13.73;4.80;;;22.60;69.80;;;;;;5034671;28;20094;-79
2022/06/20 05:50:43;;;;;;;8.88;5.30;;;22.60;70.30;;;;;;5034310;28;20108;-79
2022/06/20 05:53:25;;;;;;;13.57;5.15;;;22.60;70.00;;;;;;5034601;28;20025;-78
2022/06/20 05:55:54;;;;;;;13.15;5.43;;;22.50;69.90;;;;;;5034300;28;20023;-77
2022/06/20 05:58:24;;;;;;;13.73;5.47;;;22.60;69.60;;;;;;5034470;28;20120;-78
2022/06/20 06:00:53;;;;;;;12.40;4.70;;;22.60;68.80;;;;;;5034702;28;20024;-78
2022/06/20 06:03:28;;;;;;;10.07;4.85;;;22.50;69.10;;;;;;5034250;28;20041;-78
2022/06/20 06:06:07;;;;;;;9.73;4.55;;;22.50;69.40;;;;;;5034634;28;20025;-78
2022/06/20 06:09:03;;;;;;;8.82;4.78;;;22.60;69.20;;;;;;5034198;28;20037;-78
2022/06/20 06:11:32;;;;;;;;;;;22.70;69.20;;;;;;5035033;28;20056;-78
2022/06/20 06:14:12;;;;;;;8.07;4.68;;;22.70;69.20;;;;;;5034287;28;19904;-79
2022/06/20 06:16:49;;;;;;;11.07;4.82;;;22.80;69.80;;;;;;5034595;28;20427;-78
2022/06/20 06:19:17;;;;;;;8.70;4.72;;;22.90;70.20;;;;;;5035270;28;20108;-79
2022/06/20 06:21:46;;;;;;;10.38;4.68;;;22.90;69.90;;;;;;5034288;28;20433;-79
2022/06/20 06:24:15;;;;;;;13.68;5.28;;;23.00;69.50;;;;;;5034407;28;20032;-78
2022/06/20 06:26:43;;;;;;;13.55;5.22;;;23.10;69.30;;;;;;5034509;28;20025;-79
2022/06/20 06:29:17;;;;;;;10.55;4.75;;;23.20;68.10;;;;;;5034408;28;20052;-78
2022/06/20 06:31:46;;;;;;;8.70;4.60;;;23.30;67.40;;;;;;5052025;28;20389;-78
2022/06/20 06:34:36;;;;;;;17.63;5.60;;;23.40;66.70;;;;;;5034338;28;20136;-78
2022/06/20 06:37:10;;;;;;;12.75;4.82;;;23.30;65.00;;;;;;5033905;28;20021;-78
2022/06/20 06:39:41;;;;;;;8.07;4.28;;;23.30;63.70;;;;;;5033859;28;20021;-78
2022/06/20 06:42:14;;;;;;;11.85;5.15;;;23.40;65.60;;;;;;5051685;28;20071;-78
2022/06/20 06:44:47;;;;;;;7.13;4.68;;;23.50;67.10;;;;;;5027450;28;20045;-78
2022/06/20 06:47:23;;;;;;;10.85;5.70;;;23.70;67.50;;;;;;5016370;28;20025;-78
2022/06/20 06:49:50;;;;;;;;;;;23.90;67.60;;;;;;5018330;28;20127;-78
2022/06/20 06:52:23;;;;;;;10.73;4.47;;;24.20;66.80;;;;;;5035732;28;20039;-79
2022/06/20 06:55:25;;;;;;;6.30;4.00;;;24.50;63.40;;;;;;5017945;28;20501;-79
2022/06/20 06:58:24;;;;;;;5.93;4.03;;;24.80;60.30;;;;;;5004112;28;20033;-79
2022/06/20 07:01:18;;;;;;;10.55;4.53;;;25.00;58.20;;;;;;5035476;28;20026;-79
2022/06/20 07:04:05;;;;;;;7.68;4.00;;;25.30;55.60;;;;;;5035689;28;20048;-79
2022/06/20 07:06:41;;;;;;;6.88;3.85;;;25.60;54.50;;;;;;5018276;28;20084;-78
2022/06/20 07:09:19;;;;;;;10.77;3.33;;;25.50;46.50;;;;;;5019121;28;20521;-78
2022/06/20 07:12:32;;;;;;;8.98;3.72;;;25.40;44.30;;;;;;5021425;28;20030;-79
2022/06/20 07:15:19;;;;;;;6.15;3.42;;;25.40;44.80;;;;;;5016026;28;20534;-78
2022/06/20 07:18:01;;;;;;;6.07;3.63;;;25.40;44.30;;;;;;5023942;28;20466;-79
2022/06/20 07:20:40;;;;;;;10.02;3.88;;;25.30;43.30;;;;;;5022290;28;20044;-78
2022/06/20 07:23:11;;;;;;;8.48;3.40;;;25.40;42.00;;;;;;5019675;28;20064;-78
2022/06/20 07:25:41;;;;;;;5.30;3.22;;;25.40;43.10;;;;;;5019196;28;20072;-79
2022/06/20 07:28:18;;;;;;;9.43;3.88;;;25.50;43.40;;;;;;5037363;28;20026;-77
2022/06/20 07:30:56;;;;;;;7.95;3.28;;;25.60;42.70;;;;;;5020247;28;20022;-78
2022/06/20 07:33:28;;;;;;;15.27;4.65;;;25.70;41.80;;;;;;5021304;28;20025;-78
2022/06/20 07:35:57;;;;;;;9.73;3.90;;;25.90;42.20;;;;;;5027078;28;20064;-78
2022/06/20 07:38:28;;;;;;;6.60;3.70;;;26.00;40.90;;;;;;5032306;28;20040;-78
2022/06/20 07:41:22;;;;;;;9.02;3.72;;;26.00;40.80;;;;;;5035363;28;20336;-78
2022/06/20 07:44:17;;;;;;;6.20;4.00;;;26.00;42.10;;;;;;5029450;28;20422;-78
2022/06/20 07:46:51;;;;;;;;;;;26.10;41.20;;;;;;5056954;28;20136;-78
2022/06/20 07:49:26;;;;;;;7.45;3.75;;;26.20;41.80;;;;;;5038461;28;20004;-78
2022/06/20 07:51:56;;;;;;;5.38;3.65;;;26.40;39.70;;;;;;5037067;28;20025;-78
2022/06/20 07:54:39;;;;;;;6.47;3.97;;;26.50;39.80;;;;;;5054528;28;20036;-78
2022/06/20 07:57:10;;;;;;;8.02;3.95;;;26.60;40.10;;;;;;5049825;28;20021;-78
2022/06/20 08:00:02;;;;;;;10.40;3.83;;;26.70;39.60;;;;;;5019325;28;20056;-78
2022/06/20 08:02:52;;;;;;;9.45;3.45;;;26.80;38.60;;;;;;5035908;28;20034;-79
2022/06/20 08:05:26;;;;;;;9.25;3.42;;;26.80;38.30;;;;;;5019885;28;20056;-78
2022/06/20 08:08:00;;;;;;;8.82;3.60;;;26.90;38.50;;;;;;5019461;28;20022;-79
2022/06/20 08:10:42;;;;;;;7.55;3.35;;;27.00;38.10;;;;;;5020305;28;20026;-79
2022/06/20 08:13:32;;;;;;;6.80;3.60;;;27.00;38.40;;;;;;5021390;28;20572;-79
2022/06/20 08:16:16;;;;;;;7.63;3.88;;;27.00;39.60;;;;;;5019663;28;20021;-78
2022/06/20 08:18:42;;;;;;;11.93;3.67;;;27.10;39.50;;;;;;5019542;28;20060;-78
2022/06/20 08:21:17;;;;;;;6.30;3.22;;;27.40;38.30;;;;;;5019138;28;20021;-78
2022/06/20 08:23:45;;;;;;;;;;;27.30;36.00;;;;;;5036138;28;20030;-79
2022/06/20 08:26:17;;;;;;;7.68;3.60;;;27.30;36.10;;;;;;5017865;28;19912;-79
2022/06/20 08:28:58;;;;;;;6.28;3.13;;;27.30;36.30;;;;;;5016597;28;20072;-79
2022/06/20 08:31:28;;;;;;;10.70;3.63;;;27.20;36.00;;;;;;5032814;28;20030;-79
2022/06/20 08:34:18;;;;;;;11.18;3.40;;;27.40;35.90;;;;;;5016396;28;20376;-79
2022/06/20 08:36:56;;;;;;;9.13;3.42;;;27.50;35.60;;;;;;5016242;28;20385;-80
2022/06/20 08:39:43;;;;;;;9.15;3.58;;;27.10;36.00;;;;;;5016412;28;20021;-79
2022/06/20 08:42:43;;;;;;;9.27;3.42;;;26.90;37.00;;;;;;5016315;28;20473;-80
2022/06/20 08:45:28;;;;;;;6.78;3.65;;;27.00;37.60;;;;;;5016313;28;20125;-77
2022/06/20 08:48:47;;;;;;;11.70;3.75;;;27.10;37.70;;;;;;5016079;28;20039;-79
2022/06/20 08:51:15;;;;;;;8.00;3.30;;;27.20;37.50;;;;;;4937968;29;20031;-79
2022/06/20 08:53:44;;;;;;;7.13;4.07;;;27.40;37.20;;;;;;5011550;28;20026;-79
2022/06/20 08:56:31;;;;;;;7.40;3.22;;;27.50;37.20;;;;;;5016377;28;20029;-78
2022/06/20 08:59:19;;;;;;;10.00;3.53;;;27.70;36.40;;;;;;5016566;28;20026;-79
2022/06/20 09:02:09;;;;;;;7.25;3.30;;;27.50;35.90;;;;;;5016456;28;20426;-78
2022/06/20 09:04:43;;;;;;;10.10;3.63;;;27.60;36.40;;;;;;5016142;28;20034;-79
2022/06/20 09:07:43;;;;;;;10.17;4.03;;;27.50;36.70;;;;;;5033745;28;20378;-79
2022/06/20 09:10:28;;;;;;;10.80;3.30;;;27.50;36.30;;;;;;5016071;28;20318;-78
2022/06/20 09:13:14;;;;;;;5.07;3.40;;;27.40;37.20;;;;;;5015905;28;20025;-78
2022/06/20 09:15:42;;;;;;;10.15;3.88;;;27.40;37.50;;;;;;5016201;28;20032;-78
2022/06/20 09:18:11;;;;;;;10.23;3.55;;;27.40;37.50;;;;;;5016113;28;20033;-79
2022/06/20 09:20:48;;;;;;;7.25;3.88;;;27.50;37.10;;;;;;5015845;28;20458;-79
2022/06/20 09:23:43;;;;;;;8.90;3.20;;;27.60;37.10;;;;;;5032253;28;20080;-78
2022/06/20 09:26:19;;;;;;;13.23;4.18;;;27.60;38.50;;;;;;5032920;28;20029;-78
2022/06/20 09:29:11;;;;;;;9.52;3.30;;;27.80;38.00;;;;;;5015302;28;20661;-79
2022/06/20 09:32:06;;;;;;;8.70;4.03;;;27.60;38.10;;;;;;5015459;28;20024;-78
2022/06/20 09:34:35;;;;;;;9.70;4.00;;;27.60;37.80;;;;;;5018506;28;20164;-78
2022/06/20 09:37:31;;;;;;;13.52;3.95;;;27.80;37.10;;;;;;5015317;28;20029;-77
2022/06/20 09:40:20;;;;;;;9.25;3.67;;;27.60;37.40;;;;;;5015076;28;20044;-78
2022/06/20 09:42:49;;;;;;;10.00;3.95;;;27.70;37.50;;;;;;5015069;28;20041;-79
2022/06/20 09:45:31;;;;;;;11.07;3.63;;;27.80;38.20;;;;;;5023936;28;20077;-78
2022/06/20 09:48:16;;;;;;;8.35;3.40;;;28.00;38.20;;;;;;5035053;28;20116;-80
2022/06/20 09:51:05;;;;;;;10.18;3.63;;;28.10;38.20;;;;;;5034792;28;20021;-80
2022/06/20 09:54:01;;;;;;;9.68;3.75;;;28.10;37.50;;;;;;5035026;28;20060;-80
2022/06/20 09:56:51;;;;;;;8.52;3.88;;;28.30;36.50;;;;;;5035134;28;20036;-80
2022/06/20 09:59:53;;;;;;;7.90;3.47;;;28.30;36.70;;;;;;5034417;28;20037;-80
2022/06/20 10:02:51;;;;;;;8.50;3.40;;;28.10;37.00;;;;;;4955485;28;20126;-80
2022/06/20 10:05:42;;;;;;;7.43;3.30;;;28.10;38.10;;;;;;5052412;28;20100;-78
2022/06/20 10:08:49;;;;;;;7.55;3.40;;;28.20;37.20;;;;;;5034543;28;20028;-79
2022/06/20 10:11:46;;;;;;;9.82;3.47;;;28.30;36.40;;;;;;5034636;28;20025;-79
2022/06/20 10:14:42;;;;;;;10.68;3.50;;;28.60;35.60;;;;;;5034719;28;20033;-80
2022/06/20 10:17:36;;;;;;;7.50;3.78;;;28.70;34.50;;;;;;5034374;28;20036;-79
2022/06/20 10:20:34;;;;;;;6.97;3.42;;;29.00;36.10;;;;;;5051954;28;20485;-79
2022/06/20 10:23:33;;;;;;;8.38;3.22;;;28.80;35.30;;;;;;5038043;28;20044;-79
2022/06/20 10:26:32;;;;;;;7.32;3.53;;;28.90;36.10;;;;;;5038134;28;20017;-79
2022/06/20 10:29:17;;;;;;;12.73;3.33;;;28.90;35.30;;;;;;5038613;28;20028;-81
2022/06/20 10:32:19;;;;;;;12.35;3.53;;;28.90;35.20;;;;;;5038483;28;20508;-81
2022/06/20 10:35:15;;;;;;;10.25;4.28;;;28.60;35.40;;;;;;5038374;28;20028;-80
2022/06/20 10:38:03;;;;;;;9.05;4.13;;;28.60;35.70;;;;;;5038066;28;20485;-81
2022/06/20 10:41:02;;;;;;;9.18;3.55;;;28.90;36.20;;;;;;5038018;28;20056;-80
2022/06/20 10:43:51;;;;;;;8.57;3.40;;;29.10;33.40;;;;;;5021067;28;20425;-80
2022/06/20 10:46:30;;;;;;;8.13;3.55;;;28.70;32.20;;;;;;5037791;28;20129;-80
2022/06/20 10:49:24;;;;;;;7.30;3.78;;;29.00;33.90;;;;;;5037830;28;20035;-81
2022/06/20 10:52:08;;;;;;;9.05;3.58;;;29.30;32.60;;;;;;5037614;28;20037;-80
2022/06/20 10:54:52;;;;;;;8.23;3.70;;;29.60;33.80;;;;;;5037009;28;20116;-80
2022/06/20 10:57:37;;;;;;;7.72;3.63;;;29.30;33.80;;;;;;5037245;28;20032;-80
2022/06/20 11:00:20;;;;;;;7.03;3.75;;;29.80;33.80;;;;;;5036747;28;20032;-80
2022/06/20 11:03:04;;;;;;;11.85;4.07;;;30.00;33.50;;;;;;5054023;28;20033;-81
2022/06/20 11:05:44;;;;;;;7.72;3.70;;;30.10;34.30;;;;;;5037011;28;20104;-81
2022/06/20 11:08:29;;;;;;;6.95;3.42;;;30.00;33.80;;;;;;5037439;28;20025;-81
2022/06/20 11:11:13;;;;;;;9.73;3.70;;;30.00;34.50;;;;;;5037578;28;20470;-80
2022/06/20 11:14:05;;;;;;;7.55;3.97;;;29.80;33.60;;;;;;5055505;28;20394;-78
2022/06/20 11:17:02;;;;;;;10.07;3.60;;;30.10;32.80;;;;;;5037487;28;20032;-80
2022/06/20 11:19:58;;;;;;;7.20;3.30;;;30.20;32.00;;;;;;5037359;28;20433;-80
2022/06/20 11:22:46;;;;;;;9.10;3.72;;;30.30;32.50;;;;;;5036913;28;20037;-80
2022/06/20 11:25:42;;;;;;;8.27;3.28;;;30.50;33.00;;;;;;5036967;28;20025;-81
2022/06/20 11:28:23;;;;;;;6.15;3.70;;;30.60;31.80;;;;;;5055432;28;20041;-81
2022/06/20 11:31:05;;;;;;;5.80;3.58;;;30.60;32.20;;;;;;5037345;28;20021;-81
2022/06/20 11:34:04;;;;;;;7.35;3.35;;;30.60;31.70;;;;;;5052953;28;20033;-81
2022/06/20 11:37:00;;;;;;;9.85;3.42;;;30.50;32.40;;;;;;5037501;28;20034;-81
2022/06/20 11:39:40;;;;;;;6.20;2.67;;;30.80;31.30;;;;;;5039015;28;20028;-81
2022/06/20 11:42:45;;;;;;;5.47;3.00;;;30.80;30.70;;;;;;5037185;28;20053;-81
2022/06/20 11:45:55;;;;;;;9.52;3.95;;;30.60;31.80;;;;;;5036611;28;20152;-81
2022/06/20 11:48:27;;;;;;;8.70;3.30;;;30.60;32.80;;;;;;5036764;28;20385;-80
2022/06/20 11:51:15;;;;;;;9.18;3.25;;;30.80;31.70;;;;;;5037160;28;20029;-80
2022/06/20 11:53:53;;;;;;;10.43;3.50;;;30.90;31.40;;;;;;5036970;28;20385;-81
2022/06/20 11:56:41;;;;;;;9.27;3.47;;;31.20;31.10;;;;;;5036753;28;20397;-81
2022/06/20 11:59:34;;;;;;;10.73;3.53;;;31.30;31.10;;;;;;5036754;28;20040;-80
2022/06/20 12:02:57;;;;;;;8.23;3.30;;;31.00;31.70;;;;;;5036800;28;20477;-81
2022/06/20 12:05:46;;;;;;;10.93;3.45;;;31.10;31.80;;;;;;5036672;28;20059;-81
2022/06/20 12:08:23;;;;;;;14.95;4.05;;;30.60;31.70;;;;;;5036557;28;20357;-80
2022/06/20 12:10:55;;;;;;;5.00;3.30;;;30.70;31.80;;;;;;5054729;28;20102;-79
2022/06/20 12:13:47;;;;;;;4.60;3.20;;;30.90;30.90;;;;;;5036879;28;20031;-80
2022/06/20 12:16:30;;;;;;;6.65;3.33;;;31.00;31.10;;;;;;5035438;28;20025;-80
2022/06/20 12:25:21;;;;;;;8.82;3.95;;;30.80;32.40;;;;;;5054386;28;20028;-82
2022/06/20 12:27:46;;;;;;;5.53;3.35;;;30.50;33.60;;;;;;5036381;28;20116;-81
2022/06/20 12:30:14;;;;;;;7.13;3.40;;;30.10;34.30;;;;;;5036154;28;20119;-80
2022/06/20 12:32:47;;;;;;;6.95;3.17;;;29.60;34.10;;;;;;5052849;28;20445;-80
2022/06/20 12:35:29;;;;;;;11.80;3.50;;;29.10;35.20;;;;;;5035132;28;20044;-81
2022/06/20 12:38:09;;;;;;;7.55;3.50;;;28.80;35.70;;;;;;5035811;28;20025;-81
2022/06/20 12:40:51;;;;;;;8.63;3.50;;;28.70;36.30;;;;;;5036132;28;20512;-80
2022/06/20 12:43:28;;;;;;;7.57;3.75;;;28.30;36.90;;;;;;5035976;28;20091;-79
2022/06/20 12:46:04;;;;;;;7.47;3.45;;;28.10;37.40;;;;;;5036269;28;20224;-80
2022/06/20 12:48:45;;;;;;;8.07;3.42;;;27.90;37.90;;;;;;5035957;28;20025;-79
2022/06/20 12:51:27;;;;;;;8.27;3.58;;;27.70;38.60;;;;;;5035823;28;20021;-80
2022/06/20 12:54:25;;;;;;;7.00;3.33;;;27.60;39.60;;;;;;5035475;28;20465;-80
2022/06/20 12:57:29;;;;;;;8.43;3.55;;;27.60;39.90;;;;;;5035659;28;20187;-79
2022/06/20 13:00:32;;;;;;;4.93;3.22;;;27.70;40.50;;;;;;5035601;28;20032;-80
2022/06/20 13:03:36;;;;;;;4.72;2.88;;;27.80;42.50;;;;;;5035778;28;20696;-79
2022/06/20 13:06:28;;;;;;;7.88;3.08;;;27.90;40.10;;;;;;5038521;28;20051;-79
2022/06/20 13:09:09;;;;;;;5.97;3.22;;;28.30;39.50;;;;;;5038486;28;20025;-79
2022/06/20 13:12:02;;;;;;;7.88;3.10;;;28.50;38.60;;;;;;5035956;28;20021;-80
2022/06/20 13:14:49;;;;;;;7.32;2.80;;;28.70;37.60;;;;;;5052021;28;20079;-80
2022/06/20 13:17:20;;;;;;;7.53;2.80;;;29.00;37.60;;;;;;5035443;28;20021;-80
2022/06/20 13:20:25;;;;;;;6.43;3.00;;;29.10;38.30;;;;;;5035277;28;20029;-80
2022/06/20 13:23:14;;;;;;;5.43;2.88;;;29.50;37.90;;;;;;5034649;28;20063;-80
2022/06/20 13:25:55;;;;;;;6.88;2.90;;;29.90;36.10;;;;;;5035516;28;20470;-81
2022/06/20 13:28:42;;;;;;;5.38;2.80;;;29.90;35.30;;;;;;5035434;28;20037;-80
2022/06/20 13:31:16;;;;;;;6.65;2.90;;;30.10;35.40;;;;;;5035138;28;20032;-80
2022/06/20 13:34:20;;;;;;;7.22;2.97;;;29.90;35.20;;;;;;5034978;28;20032;-80
2022/06/20 13:37:13;;;;;;;6.65;2.92;;;30.00;35.10;;;;;;5054106;28;20072;-80
2022/06/20 13:40:05;;;;;;;13.35;3.50;;;29.60;35.20;;;;;;5034553;28;20485;-81
2022/06/20 13:42:53;;;;;;;5.63;3.10;;;29.60;35.50;;;;;;5035736;28;20033;-80
2022/06/20 13:45:32;;;;;;;5.72;3.20;;;29.60;35.40;;;;;;5034826;28;20051;-80
2022/06/20 13:48:24;;;;;;;10.93;2.85;;;29.90;34.80;;;;;;5051451;28;20119;-79
2022/06/20 13:51:05;;;;;;;7.43;2.90;;;29.90;34.90;;;;;;5034861;28;20021;-80
2022/06/20 13:53:53;;;;;;;6.93;2.70;;;29.60;35.20;;;;;;5034096;28;20021;-79
2022/06/20 13:56:43;;;;;;;4.90;2.58;;;29.90;35.00;;;;;;5033467;28;20127;-79
2022/06/20 13:59:29;;;;;;;5.97;2.67;;;29.60;34.40;;;;;;5034441;28;20127;-79
2022/06/20 14:02:31;;;;;;;6.82;2.80;;;29.00;34.90;;;;;;5034446;28;20025;-79